KHLR

Hood AAF Airport

Fort Hood(Killeen), Texas, USA
METAR KHLR 231958Z AUTO 05007KT 10SM OVC065 20/07 A3010 RMK AO2 SLP188 T02010069
Observed Flight Rules
Oct-23 @ 19:58 UTC (33 minutes ago) Visual Flight Rules
Wind Visibility Clouds
50° at 7 knots 10 miles
  • Overcast at 6,500' AGL
Temperatures Readings
Current 20°C / 68°F
Dewpoint 7°C / 45°F
Humidity 43%
Altimeter 30.1" Hg
Pressure 1018.8 hPa
Elevation 283
METAR KHLR 231958Z AUTO 05007KT 10SM OVC065 20/07 A3010 RMK AO2 SLP188 T02010069
Observed Flight Rules
Oct-23 @ 19:58 UTC
(33 minutes ago)
VFR
Wind Visibility
50° at 7 knots 10 miles
Clouds
  • Overcast at 6,500' AGL
Temperature Dewpoint
20°C / 68°F 7°C / 45°F
Humidity Altimeter Pressure
43% 30.1" Hg 1018.8 hPa